This is the latest recevied weather packets stored in our database for station/object NC4M. If no packets are shown the sender has not sent any weather packets the latest 1 day(s).
| Time | Temp. | Humidity | Pressure | Rain* | Wind** | Luminosity | Snow |
|---|---|---|---|---|---|---|---|
| 1778085577 | 12.78° C | 65% | 1017.7 hPa | 0 mm | - | 564 W/m² | - |
| 1778084362 | 12.22° C | 70% | 1017.3 hPa | 0 mm | - | 328 W/m² | - |
| 1778081731 | 11.11° C | 75% | 1017 hPa | 0 mm | - | 219 W/m² | - |
| 1778081125 | 10.56° C | 76% | 1016.9 hPa | 0 mm | - | 179 W/m² | - |
| 1778080218 | 10° C | 75% | 1016.7 hPa | 0 mm | - | 247 W/m² | - |
| 1778077190 | 9.44° C | 82% | 1016.3 hPa | 0 mm | - | 165 W/m² | - |
| 1778076888 | 9.44° C | 83% | 1016.3 hPa | 0 mm | - | 152 W/m² | - |
| 1778076283 | 8.89° C | 84% | 1016.5 hPa | 0 mm | - | 155 W/m² | - |
| 1778075677 | 8.89° C | 84% | 1016.8 hPa | 0 mm | - | 143 W/m² | - |
| 1778075373 | 8.89° C | 88% | 1016.9 hPa | 0 mm | - | 121 W/m² | - |
| 1778074766 | 8.89° C | 88% | 1016.6 hPa | 0 mm | - | 156 W/m² | - |
| 1778074463 | 8.33° C | 88% | 1016.5 hPa | 0 mm | - | 140 W/m² | - |
| 1778074160 | 8.33° C | 90% | 1016.5 hPa | 0 mm | - | 138 W/m² | - |
| 1778073857 | 8.33° C | 90% | 1016.4 hPa | 0 mm | - | 130 W/m² | - |
| 1778072948 | 7.78° C | 92% | 1016.6 hPa | 0 mm | - | 80 W/m² | - |
| 1778072644 | 7.78° C | 93% | 1016.7 hPa | 0 mm | - | 58 W/m² | - |
| 1778071435 | 7.78° C | 93% | 1016.8 hPa | 0 mm | - | 33 W/m² | - |
| 1778071133 | 7.78° C | 94% | 1016.6 hPa | 0 mm | - | 44 W/m² | - |
| 1778070831 | 7.78° C | 94% | 1016.5 hPa | 0 mm | - | 33 W/m² | - |
| 1778070528 | 7.22° C | 94% | 1016.1 hPa | 0 mm | - | 36 W/m² | - |
| 1778069620 | 7.22° C | 95% | 1015.8 hPa | 0 mm | - | 21 W/m² | - |
| 1778069317 | 7.22° C | 94% | 1015.7 hPa | 0 mm | - | 25 W/m² | - |
| 1778069015 | 7.22° C | 94% | 1015.5 hPa | 0 mm | - | 14 W/m² | - |
| 1778068410 | 7.22° C | 94% | 1015.6 hPa | 0 mm | - | 24 W/m² | - |
| 1778067805 | 7.22° C | 95% | 1015.6 hPa | 0 mm | - | 9 W/m² | - |
* Rain latest hour (hover to see other rain measurements)
** Current wind speed in m/s (hover to see current wind gust speed)